Elba, Minnesota
Current Conditions -  °F | °C
As of 7:34 PM on Wednesday 26 Nov 2014 (Local Time) from KONA Reporting Station
Overcast Overcast  
Wind Chill: 22°   Ceiling: 2900
Heat Index: 28°   Visibility: 10mi
Dew Point: 27°   Wind: 6mph
Humidity: 93%   Direction: 330°NNW
Pressure: 30.26"   Gusts: NA
Location:  44.1503°N, 91.9879°W
Report Text: KONA 270134Z AUTO 33005KT 10SM OVC029 M02/M03 A3026 RMK AO2
Loading
Personal Weather Stations






























Interactive Weather Map New forecast layout! Learn more

10-Day Weather Forecast

Advertisements
Track Severe Weather on mobile